sensor_id;sensor_type;location;lat;lon;timestamp;P1;durP1;ratioP1;P2;durP2;ratioP2
45049;SDS011;61798;48.048;-1.928;2022-12-29T02:03:10;15.05;;;3.20;;
45049;SDS011;61798;48.048;-1.928;2022-12-29T02:19:44;19.45;;;3.33;;
45049;SDS011;61798;48.048;-1.928;2022-12-29T02:33:18;31.27;;;3.75;;
45049;SDS011;61798;48.048;-1.928;2022-12-29T02:50:31;18.30;;;3.28;;
45049;SDS011;61798;48.048;-1.928;2022-12-29T03:03:51;22.30;;;3.53;;
45049;SDS011;61798;48.048;-1.928;2022-12-29T03:11:24;24.02;;;4.18;;
45049;SDS011;61798;48.048;-1.928;2022-12-29T03:14:25;32.83;;;4.60;;
45049;SDS011;61798;48.048;-1.928;2022-12-29T03:28:41;16.05;;;4.03;;
45049;SDS011;61798;48.048;-1.928;2022-12-29T03:31:28;23.00;;;3.08;;
45049;SDS011;61798;48.048;-1.928;2022-12-29T03:34:03;23.23;;;3.80;;
45049;SDS011;61798;48.048;-1.928;2022-12-29T03:36:43;25.45;;;3.35;;
45049;SDS011;61798;48.048;-1.928;2022-12-29T03:39:12;17.25;;;2.60;;
45049;SDS011;61798;48.048;-1.928;2022-12-29T03:47:25;17.20;;;2.90;;
45049;SDS011;61798;48.048;-1.928;2022-12-29T03:50:08;17.55;;;2.80;;
45049;SDS011;61798;48.048;-1.928;2022-12-29T04:07:35;23.42;;;3.17;;
45049;SDS011;61798;48.048;-1.928;2022-12-29T04:50:46;25.45;;;4.07;;
45049;SDS011;61798;48.048;-1.928;2022-12-29T04:54:16;23.60;;;3.45;;
45049;SDS011;61798;48.048;-1.928;2022-12-29T05:16:54;29.70;;;4.57;;
45049;SDS011;61798;48.048;-1.928;2022-12-29T05:19:55;34.60;;;4.05;;
45049;SDS011;61798;48.048;-1.928;2022-12-29T05:22:47;25.77;;;3.72;;
45049;SDS011;61798;48.048;-1.928;2022-12-29T05:26:05;27.20;;;3.28;;
45049;SDS011;61798;48.048;-1.928;2022-12-29T05:29:02;26.83;;;4.25;;
45049;SDS011;61798;48.048;-1.928;2022-12-29T05:35:19;34.47;;;4.55;;
45049;SDS011;61798;48.048;-1.928;2022-12-29T07:00:27;24.15;;;3.35;;
45049;SDS011;61798;48.048;-1.928;2022-12-29T07:02:55;27.33;;;3.80;;
45049;SDS011;61798;48.048;-1.928;2022-12-29T07:05:32;25.98;;;5.00;;
45049;SDS011;61798;48.048;-1.928;2022-12-29T07:08:24;26.17;;;4.13;;
45049;SDS011;61798;48.048;-1.928;2022-12-29T07:10:50;26.60;;;3.53;;
45049;SDS011;61798;48.048;-1.928;2022-12-29T07:13:17;17.73;;;3.75;;
45049;SDS011;61798;48.048;-1.928;2022-12-29T07:16:15;24.15;;;3.42;;
45049;SDS011;61798;48.048;-1.928;2022-12-29T07:19:15;26.50;;;3.28;;
45049;SDS011;61798;48.048;-1.928;2022-12-29T07:26:59;20.08;;;3.72;;
45049;SDS011;61798;48.048;-1.928;2022-12-29T07:30:07;33.85;;;5.63;;
45049;SDS011;61798;48.048;-1.928;2022-12-29T07:32:46;22.50;;;3.83;;
45049;SDS011;61798;48.048;-1.928;2022-12-29T07:35:39;22.80;;;3.72;;
45049;SDS011;61798;48.048;-1.928;2022-12-29T07:38:47;36.58;;;4.32;;
45049;SDS011;61798;48.048;-1.928;2022-12-29T07:41:51;37.38;;;4.63;;
45049;SDS011;61798;48.048;-1.928;2022-12-29T07:44:29;40.33;;;5.53;;
45049;SDS011;61798;48.048;-1.928;2022-12-29T07:47:16;28.27;;;3.80;;
45049;SDS011;61798;48.048;-1.928;2022-12-29T07:50:06;31.52;;;4.40;;
45049;SDS011;61798;48.048;-1.928;2022-12-29T07:52:53;33.28;;;4.25;;
45049;SDS011;61798;48.048;-1.928;2022-12-29T07:55:38;29.77;;;4.57;;
45049;SDS011;61798;48.048;-1.928;2022-12-29T07:58:02;29.98;;;4.85;;
45049;SDS011;61798;48.048;-1.928;2022-12-29T08:03:59;25.55;;;3.70;;
45049;SDS011;61798;48.048;-1.928;2022-12-29T08:09:12;31.95;;;5.22;;
45049;SDS011;61798;48.048;-1.928;2022-12-29T08:11:46;32.45;;;4.75;;
45049;SDS011;61798;48.048;-1.928;2022-12-29T08:24:36;28.73;;;4.35;;
45049;SDS011;61798;48.048;-1.928;2022-12-29T08:28:02;37.88;;;4.38;;
45049;SDS011;61798;48.048;-1.928;2022-12-29T08:45:51;24.60;;;4.25;;
45049;SDS011;61798;48.048;-1.928;2022-12-29T08:49:23;25.40;;;3.42;;
45049;SDS011;61798;48.048;-1.928;2022-12-29T09:09:43;34.13;;;6.05;;
45049;SDS011;61798;48.048;-1.928;2022-12-29T09:11:56;19.42;;;4.25;;
45049;SDS011;61798;48.048;-1.928;2022-12-29T09:19:29;37.28;;;4.20;;
45049;SDS011;61798;48.048;-1.928;2022-12-29T09:22:06;32.92;;;5.80;;
45049;SDS011;61798;48.048;-1.928;2022-12-29T09:24:27;25.20;;;4.05;;
45049;SDS011;61798;48.048;-1.928;2022-12-29T09:27:24;27.83;;;5.10;;
45049;SDS011;61798;48.048;-1.928;2022-12-29T09:40:22;28.33;;;4.40;;
45049;SDS011;61798;48.048;-1.928;2022-12-29T09:46:53;31.75;;;4.28;;
45049;SDS011;61798;48.048;-1.928;2022-12-29T09:54:46;29.98;;;4.22;;
45049;SDS011;61798;48.048;-1.928;2022-12-29T09:58:02;24.08;;;4.35;;
45049;SDS011;61798;48.048;-1.928;2022-12-29T10:00:58;26.38;;;3.72;;
45049;SDS011;61798;48.048;-1.928;2022-12-29T10:03:51;24.20;;;3.90;;
45049;SDS011;61798;48.048;-1.928;2022-12-29T10:20:38;28.30;;;4.50;;
45049;SDS011;61798;48.048;-1.928;2022-12-29T10:23:36;29.80;;;3.90;;
45049;SDS011;61798;48.048;-1.928;2022-12-29T10:26:25;34.47;;;4.05;;
45049;SDS011;61798;48.048;-1.928;2022-12-29T10:29:06;20.40;;;3.95;;
45049;SDS011;61798;48.048;-1.928;2022-12-29T10:35:19;26.65;;;4.28;;
45049;SDS011;61798;48.048;-1.928;2022-12-29T11:56:54;19.67;;;3.42;;
45049;SDS011;61798;48.048;-1.928;2022-12-29T11:59:49;17.42;;;3.72;;
45049;SDS011;61798;48.048;-1.928;2022-12-29T12:31:41;25.20;;;4.43;;
45049;SDS011;61798;48.048;-1.928;2022-12-29T15:06:54;10.70;;;2.33;;
45049;SDS011;61798;48.048;-1.928;2022-12-29T15:29:42;6.38;;;1.92;;
45049;SDS011;61798;48.048;-1.928;2022-12-29T15:32:16;9.60;;;1.73;;
45049;SDS011;61798;48.048;-1.928;2022-12-29T15:34:47;11.25;;;3.35;;
45049;SDS011;61798;48.048;-1.928;2022-12-29T15:37:26;10.38;;;2.90;;
45049;SDS011;61798;48.048;-1.928;2022-12-29T15:40:19;11.68;;;4.50;;
45049;SDS011;61798;48.048;-1.928;2022-12-29T15:43:23;12.15;;;5.85;;
45049;SDS011;61798;48.048;-1.928;2022-12-29T15:49:28;13.15;;;6.32;;
45049;SDS011;61798;48.048;-1.928;2022-12-29T15:51:45;13.35;;;6.78;;
45049;SDS011;61798;48.048;-1.928;2022-12-29T16:04:12;17.20;;;9.02;;
45049;SDS011;61798;48.048;-1.928;2022-12-29T16:06:47;20.60;;;10.73;;
45049;SDS011;61798;48.048;-1.928;2022-12-29T16:13:38;27.02;;;13.77;;
45049;SDS011;61798;48.048;-1.928;2022-12-29T16:16:38;32.47;;;17.70;;
45049;SDS011;61798;48.048;-1.928;2022-12-29T16:19:06;34.20;;;18.70;;
45049;SDS011;61798;48.048;-1.928;2022-12-29T16:21:51;47.47;;;25.13;;
45049;SDS011;61798;48.048;-1.928;2022-12-29T16:25:35;22.20;;;10.18;;
45049;SDS011;61798;48.048;-1.928;2022-12-29T16:28:50;15.05;;;6.05;;
45049;SDS011;61798;48.048;-1.928;2022-12-29T16:33:49;7.00;;;3.03;;
45049;SDS011;61798;48.048;-1.928;2022-12-29T16:36:01;13.30;;;3.53;;
45049;SDS011;61798;48.048;-1.928;2022-12-29T16:38:47;8.95;;;3.95;;
45049;SDS011;61798;48.048;-1.928;2022-12-29T16:41:32;11.20;;;5.60;;
45049;SDS011;61798;48.048;-1.928;2022-12-29T16:44:30;16.73;;;5.53;;
45049;SDS011;61798;48.048;-1.928;2022-12-29T16:47:17;10.52;;;5.78;;
45049;SDS011;61798;48.048;-1.928;2022-12-29T16:49:53;9.80;;;3.75;;
45049;SDS011;61798;48.048;-1.928;2022-12-29T16:52:25;8.05;;;3.28;;
45049;SDS011;61798;48.048;-1.928;2022-12-29T16:55:23;10.35;;;3.42;;
45049;SDS011;61798;48.048;-1.928;2022-12-29T16:57:56;11.75;;;3.95;;
45049;SDS011;61798;48.048;-1.928;2022-12-29T17:00:22;10.40;;;3.17;;
45049;SDS011;61798;48.048;-1.928;2022-12-29T17:02:51;8.02;;;3.58;;
45049;SDS011;61798;48.048;-1.928;2022-12-29T17:05:26;7.10;;;2.95;;
45049;SDS011;61798;48.048;-1.928;2022-12-29T17:08:13;10.23;;;3.20;;
45049;SDS011;61798;48.048;-1.928;2022-12-29T17:10:45;6.82;;;2.28;;
45049;SDS011;61798;48.048;-1.928;2022-12-29T17:14:20;10.98;;;2.70;;
45049;SDS011;61798;48.048;-1.928;2022-12-29T17:21:19;8.68;;;2.60;;
45049;SDS011;61798;48.048;-1.928;2022-12-29T17:28:20;10.88;;;3.75;;
45049;SDS011;61798;48.048;-1.928;2022-12-29T17:31:09;9.13;;;3.45;;
45049;SDS011;61798;48.048;-1.928;2022-12-29T17:46:09;10.55;;;2.70;;
45049;SDS011;61798;48.048;-1.928;2022-12-29T17:49:14;11.32;;;3.15;;
45049;SDS011;61798;48.048;-1.928;2022-12-29T17:58:39;15.23;;;3.20;;
45049;SDS011;61798;48.048;-1.928;2022-12-29T18:01:34;11.77;;;3.17;;
45049;SDS011;61798;48.048;-1.928;2022-12-29T18:11:08;14.52;;;2.92;;
45049;SDS011;61798;48.048;-1.928;2022-12-29T18:14:38;13.33;;;4.23;;
45049;SDS011;61798;48.048;-1.928;2022-12-29T18:21:30;13.70;;;3.10;;
45049;SDS011;61798;48.048;-1.928;2022-12-29T18:24:17;10.88;;;2.85;;
45049;SDS011;61798;48.048;-1.928;2022-12-29T18:26:59;16.92;;;4.72;;
45049;SDS011;61798;48.048;-1.928;2022-12-29T18:29:34;12.10;;;5.45;;
45049;SDS011;61798;48.048;-1.928;2022-12-29T18:32:15;23.90;;;10.77;;
45049;SDS011;61798;48.048;-1.928;2022-12-29T18:34:33;19.83;;;6.72;;
45049;SDS011;61798;48.048;-1.928;2022-12-29T18:37:27;16.20;;;4.93;;
45049;SDS011;61798;48.048;-1.928;2022-12-29T18:40:59;13.88;;;4.10;;
45049;SDS011;61798;48.048;-1.928;2022-12-29T18:43:13;10.38;;;3.45;;
45049;SDS011;61798;48.048;-1.928;2022-12-29T18:46:01;11.57;;;3.85;;
45049;SDS011;61798;48.048;-1.928;2022-12-29T18:48:44;8.95;;;3.10;;
45049;SDS011;61798;48.048;-1.928;2022-12-29T18:51:16;9.43;;;3.45;;
45049;SDS011;61798;48.048;-1.928;2022-12-29T18:54:25;12.05;;;3.42;;
45049;SDS011;61798;48.048;-1.928;2022-12-29T18:57:08;10.82;;;2.60;;
45049;SDS011;61798;48.048;-1.928;2022-12-29T18:59:45;13.45;;;2.72;;
45049;SDS011;61798;48.048;-1.928;2022-12-29T19:02:30;10.20;;;2.70;;
45049;SDS011;61798;48.048;-1.928;2022-12-29T19:05:30;15.95;;;4.07;;
45049;SDS011;61798;48.048;-1.928;2022-12-29T19:15:29;19.15;;;9.50;;
45049;SDS011;61798;48.048;-1.928;2022-12-29T19:17:52;16.38;;;8.70;;
45049;SDS011;61798;48.048;-1.928;2022-12-29T19:20:36;18.33;;;7.68;;
45049;SDS011;61798;48.048;-1.928;2022-12-29T19:27:36;14.25;;;4.80;;
45049;SDS011;61798;48.048;-1.928;2022-12-29T19:31:05;13.48;;;3.95;;
45049;SDS011;61798;48.048;-1.928;2022-12-29T19:34:15;15.75;;;4.10;;
45049;SDS011;61798;48.048;-1.928;2022-12-29T19:37:35;13.38;;;3.30;;
45049;SDS011;61798;48.048;-1.928;2022-12-29T19:45:26;16.90;;;4.82;;
45049;SDS011;61798;48.048;-1.928;2022-12-29T19:52:41;17.50;;;6.00;;
45049;SDS011;61798;48.048;-1.928;2022-12-29T20:02:40;17.58;;;4.30;;
45049;SDS011;61798;48.048;-1.928;2022-12-29T20:05:49;12.40;;;3.95;;
45049;SDS011;61798;48.048;-1.928;2022-12-29T20:08:55;16.38;;;3.78;;
45049;SDS011;61798;48.048;-1.928;2022-12-29T20:11:36;17.73;;;3.92;;
45049;SDS011;61798;48.048;-1.928;2022-12-29T20:14:39;18.25;;;4.90;;
45049;SDS011;61798;48.048;-1.928;2022-12-29T20:21:34;19.48;;;6.10;;
45049;SDS011;61798;48.048;-1.928;2022-12-29T20:24:27;12.17;;;6.43;;
45049;SDS011;61798;48.048;-1.928;2022-12-29T20:27:08;20.70;;;8.93;;
45049;SDS011;61798;48.048;-1.928;2022-12-29T20:29:31;29.48;;;13.63;;
45049;SDS011;61798;48.048;-1.928;2022-12-29T20:31:59;21.15;;;10.98;;
45049;SDS011;61798;48.048;-1.928;2022-12-29T20:34:16;28.50;;;11.13;;
45049;SDS011;61798;48.048;-1.928;2022-12-29T20:39:56;35.05;;;13.10;;
45049;SDS011;61798;48.048;-1.928;2022-12-29T20:42:46;23.25;;;10.82;;
45049;SDS011;61798;48.048;-1.928;2022-12-29T20:45:10;21.98;;;10.27;;
45049;SDS011;61798;48.048;-1.928;2022-12-29T20:47:46;24.98;;;8.45;;
45049;SDS011;61798;48.048;-1.928;2022-12-29T20:50:49;15.38;;;7.05;;
45049;SDS011;61798;48.048;-1.928;2022-12-29T20:53:46;13.65;;;7.90;;
45049;SDS011;61798;48.048;-1.928;2022-12-29T20:57:30;21.25;;;8.85;;
45049;SDS011;61798;48.048;-1.928;2022-12-29T21:03:23;18.25;;;8.07;;
45049;SDS011;61798;48.048;-1.928;2022-12-29T21:05:37;20.48;;;8.27;;
45049;SDS011;61798;48.048;-1.928;2022-12-29T21:07:58;20.40;;;7.78;;
45049;SDS011;61798;48.048;-1.928;2022-12-29T21:10:48;15.55;;;6.53;;
45049;SDS011;61798;48.048;-1.928;2022-12-29T21:16:07;22.98;;;6.47;;
45049;SDS011;61798;48.048;-1.928;2022-12-29T21:18:34;24.10;;;6.63;;
45049;SDS011;61798;48.048;-1.928;2022-12-29T21:20:55;13.85;;;6.85;;
45049;SDS011;61798;48.048;-1.928;2022-12-29T21:23:16;20.15;;;5.88;;
45049;SDS011;61798;48.048;-1.928;2022-12-29T21:26:21;12.07;;;5.13;;
45049;SDS011;61798;48.048;-1.928;2022-12-29T21:46:07;18.38;;;5.93;;
45049;SDS011;61798;48.048;-1.928;2022-12-29T21:54:37;21.15;;;7.35;;
45049;SDS011;61798;48.048;-1.928;2022-12-29T21:58:15;27.70;;;7.47;;
45049;SDS011;61798;48.048;-1.928;2022-12-29T22:01:09;21.73;;;6.68;;
45049;SDS011;61798;48.048;-1.928;2022-12-29T22:04:02;19.63;;;6.10;;
45049;SDS011;61798;48.048;-1.928;2022-12-29T22:06:59;25.10;;;7.20;;
45049;SDS011;61798;48.048;-1.928;2022-12-29T22:13:56;20.52;;;6.03;;
45049;SDS011;61798;48.048;-1.928;2022-12-29T22:16:18;17.38;;;5.40;;
45049;SDS011;61798;48.048;-1.928;2022-12-29T22:18:57;19.48;;;5.40;;
45049;SDS011;61798;48.048;-1.928;2022-12-29T22:21:43;25.23;;;7.10;;
45049;SDS011;61798;48.048;-1.928;2022-12-29T22:24:14;26.45;;;6.65;;
45049;SDS011;61798;48.048;-1.928;2022-12-29T22:26:30;16.63;;;5.90;;
45049;SDS011;61798;48.048;-1.928;2022-12-29T22:28:50;23.20;;;6.00;;
45049;SDS011;61798;48.048;-1.928;2022-12-29T22:31:22;25.83;;;6.35;;
45049;SDS011;61798;48.048;-1.928;2022-12-29T22:33:44;28.00;;;6.85;;
45049;SDS011;61798;48.048;-1.928;2022-12-29T22:39:18;24.58;;;5.75;;
45049;SDS011;61798;48.048;-1.928;2022-12-29T22:42:06;20.30;;;5.72;;
45049;SDS011;61798;48.048;-1.928;2022-12-29T22:48:23;12.60;;;4.85;;
45049;SDS011;61798;48.048;-1.928;2022-12-29T22:51:27;20.52;;;6.13;;
45049;SDS011;61798;48.048;-1.928;2022-12-29T22:56:28;15.07;;;4.65;;
45049;SDS011;61798;48.048;-1.928;2022-12-29T22:59:14;18.02;;;5.15;;
45049;SDS011;61798;48.048;-1.928;2022-12-29T23:02:18;18.63;;;4.55;;
45049;SDS011;61798;48.048;-1.928;2022-12-29T23:04:58;22.67;;;4.47;;
45049;SDS011;61798;48.048;-1.928;2022-12-29T23:08:17;15.10;;;4.18;;
45049;SDS011;61798;48.048;-1.928;2022-12-29T23:14:28;20.33;;;4.75;;
45049;SDS011;61798;48.048;-1.928;2022-12-29T23:17:25;20.90;;;4.35;;
45049;SDS011;61798;48.048;-1.928;2022-12-29T23:20:36;18.88;;;4.60;;
45049;SDS011;61798;48.048;-1.928;2022-12-29T23:34:57;12.23;;;3.97;;
45049;SDS011;61798;48.048;-1.928;2022-12-29T23:38:50;14.60;;;4.20;;
45049;SDS011;61798;48.048;-1.928;2022-12-29T23:41:31;13.73;;;3.72;;
45049;SDS011;61798;48.048;-1.928;2022-12-29T23:44:31;14.35;;;4.05;;
45049;SDS011;61798;48.048;-1.928;2022-12-29T23:47:13;13.73;;;4.45;;
45049;SDS011;61798;48.048;-1.928;2022-12-29T23:49:39;16.15;;;4.00;;
45049;SDS011;61798;48.048;-1.928;2022-12-29T23:52:25;18.52;;;4.60;;
45049;SDS011;61798;48.048;-1.928;2022-12-29T23:58:15;14.55;;;4.60;;
